Time;durP1;ratioP1;P1;durP2;ratioP2;P2;SDS_P1;SDS_P2;PMS_P1;PMS_P2;Temp;Humidity;BMP_temperature;BMP_pressure;BME280_temperature;BME280_humidity;BME280_pressure;Samples;Min_cycle;Max_cycle;Signal;HPM_P1;HPM_P2
2022/09/13 00:00:33;;;;;;;;;;;20.00;99.90;;;;;;5077510;28;20196;-62
2022/09/13 00:02:59;;;;;;;;;;;20.00;99.90;;;;;;5077479;28;19912;-62
2022/09/13 00:05:24;;;;;;;;;;;20.00;99.90;;;;;;5077468;28;19919;-63
2022/09/13 00:07:50;;;;;;;;;;;19.90;99.90;;;;;;5077501;28;19958;-62
2022/09/13 00:10:16;;;;;;;;;;;19.80;99.90;;;;;;5077232;28;19917;-62
2022/09/13 00:12:42;;;;;;;;;;;19.80;99.90;;;;;;5077972;28;19923;-63
2022/09/13 00:15:08;;;;;;;;;;;19.80;99.90;;;;;;5077351;28;19919;-62
2022/09/13 00:17:33;;;;;;;;;;;19.80;99.90;;;;;;5077388;28;19908;-63
2022/09/13 00:19:59;;;;;;;;;;;19.80;99.90;;;;;;5077217;28;19919;-62
2022/09/13 00:22:25;;;;;;;;;;;19.80;99.90;;;;;;5077257;28;19923;-62
2022/09/13 00:24:51;;;;;;;;;;;19.90;99.90;;;;;;5077268;28;19908;-62
2022/09/13 00:27:17;;;;;;;;;;;19.90;99.90;;;;;;5077242;28;19908;-62
2022/09/13 00:29:42;;;;;;;;;;;19.90;99.90;;;;;;5077197;28;19920;-63
2022/09/13 00:32:08;;;;;;;;;;;19.90;99.90;;;;;;5077506;28;19983;-63
2022/09/13 00:34:34;;;;;;;;;;;20.00;99.90;;;;;;5077163;28;20330;-63
2022/09/13 00:36:59;;;;;;;;;;;20.00;99.90;;;;;;5077394;28;19919;-63
2022/09/13 00:39:25;;;;;;;;;;;20.00;99.90;;;;;;5076893;28;19921;-63
2022/09/13 00:41:51;;;;;;;;;;;20.20;99.90;;;;;;5077152;28;20237;-63
2022/09/13 00:44:35;;;;;;;;;;;20.20;99.90;;;;;;5076949;28;19912;-63
2022/09/13 00:47:01;;;;;;;;;;;20.30;99.90;;;;;;5077023;28;19965;-63
2022/09/13 00:49:33;;;;;;;;;;;20.40;99.90;;;;;;5077021;28;20230;-62
2022/09/13 00:52:01;;;;;;;;;;;20.30;99.90;;;;;;5077252;28;20173;-62
2022/09/13 00:54:30;;;;;;;;;;;20.20;99.90;;;;;;5093105;28;20280;-63
2022/09/13 00:56:58;;;;;;;;;;;20.10;99.90;;;;;;5080363;28;19908;-63
2022/09/13 00:59:29;;;;;;;;;;;20.20;99.90;;;;;;5096977;28;20223;-62
2022/09/13 01:01:56;;;;;;;;;;;20.30;99.90;;;;;;5080858;28;20280;-62
2022/09/13 01:04:24;;;;;;;;;;;20.30;99.90;;;;;;5080716;28;19916;-63
2022/09/13 01:06:51;;;;;;;;;;;20.10;99.90;;;;;;5080715;28;19912;-63
2022/09/13 01:09:16;;;;;;;;;;;20.10;99.90;;;;;;5080714;28;20007;-63
2022/09/13 01:11:49;;;;;;;;;;;20.10;99.90;;;;;;5081158;28;20007;-63
2022/09/13 01:14:18;;;;;;;;;;;20.20;99.90;;;;;;5080470;28;20296;-63
2022/09/13 01:16:44;;;;;;;;;;;20.00;99.90;;;;;;5079751;28;19959;-63
2022/09/13 01:19:09;;;;;;;;;;;19.80;99.90;;;;;;5080374;28;20335;-63
2022/09/13 01:21:54;;;;;;;;;;;19.90;99.90;;;;;;5080418;28;19912;-63
2022/09/13 01:24:25;;;;;;;;;;;19.90;99.90;;;;;;5080284;28;19973;-63
2022/09/13 01:27:18;;;;;;;;;;;19.90;99.90;;;;;;5080323;28;20203;-62
2022/09/13 01:29:44;;;;;;;;;;;19.90;99.90;;;;;;5080201;28;19909;-63
2022/09/13 01:32:09;;;;;;;;;;;20.00;99.90;;;;;;5080263;28;20000;-63
2022/09/13 01:34:41;;;;;;;;;;;19.90;99.90;;;;;;5079315;28;19961;-63
2022/09/13 01:37:45;;;;;;;;;;;20.10;99.90;;;;;;5080120;28;20200;-63
2022/09/13 01:40:15;;;;;;;;;;;20.10;99.90;;;;;;5018843;28;19941;-63
2022/09/13 01:42:41;;;;;;;;;;;20.10;99.90;;;;;;5018852;28;19953;-63
2022/09/13 01:45:06;;;;;;;;;;;20.10;99.90;;;;;;5049103;28;19946;-62
2022/09/13 01:47:32;;;;;;;;;;;20.10;99.90;;;;;;5079999;28;19908;-63
2022/09/13 01:50:09;;;;;;;;;;;20.10;99.90;;;;;;5079845;28;20053;-63
2022/09/13 01:52:42;;;;;;;;;;;20.10;99.90;;;;;;5079057;28;19913;-63
2022/09/13 01:55:12;;;;;;;;;;;20.00;99.90;;;;;;5079829;28;20007;-62
2022/09/13 01:58:04;;;;;;;;;;;20.00;99.90;;;;;;5079756;28;19919;-62
2022/09/13 02:00:33;;;;;;;;;;;20.00;99.90;;;;;;5076618;28;20287;-63
2022/09/13 02:03:21;;;;;;;;;;;20.00;99.90;;;;;;5079634;28;19912;-63
2022/09/13 02:05:53;;;;;;;;;;;19.90;99.90;;;;;;5079678;28;19957;-63
2022/09/13 02:08:24;;;;;;;;;;;19.90;99.90;;;;;;5079238;28;19912;-63
2022/09/13 02:10:53;;;;;;;;;;;20.00;99.90;;;;;;5079415;28;19912;-63
2022/09/13 02:13:22;;;;;;;;;;;19.90;99.90;;;;;;5079881;28;19916;-63
2022/09/13 02:15:49;;;;;;;;;;;19.80;99.90;;;;;;5079420;28;19908;-63
2022/09/13 02:18:24;;;;;;;;;;;19.70;99.90;;;;;;5078643;28;20282;-63
2022/09/13 02:20:51;;;;;;;;;;;19.70;99.90;;;;;;5095399;28;19919;-63
2022/09/13 02:23:30;;;;;;;;;;;19.70;99.90;;;;;;5079310;28;20180;-63
2022/09/13 02:25:56;;;;;;;;;;;19.60;99.90;;;;;;5095389;28;20003;-63
2022/09/13 02:28:26;;;;;;;;;;;19.70;99.90;;;;;;5079191;28;19955;-63
2022/09/13 02:30:52;;;;;;;;;;;19.70;99.90;;;;;;5095163;28;19982;-63
2022/09/13 02:33:25;;;;;;;;;;;19.80;99.90;;;;;;5079578;28;19970;-63
2022/09/13 02:35:54;;;;;;;;;;;19.80;99.90;;;;;;5079005;28;19914;-64
2022/09/13 02:38:26;;;;;;;;;;;19.70;99.90;;;;;;5078869;28;19966;-63
2022/09/13 02:40:56;;;;;;;;;;;19.60;99.90;;;;;;5078953;28;20280;-63
2022/09/13 02:43:26;;;;;;;;;;;19.40;99.90;;;;;;5078823;28;19937;-63
2022/09/13 02:45:59;;;;;;;;;;;19.50;99.90;;;;;;5061487;28;19916;-64
2022/09/13 02:48:29;;;;;;;;;;;19.60;99.90;;;;;;5079170;28;19919;-63
2022/09/13 02:50:58;;;;;;;;;;;19.60;99.90;;;;;;5094778;28;19912;-63
2022/09/13 02:53:30;;;;;;;;;;;19.60;99.90;;;;;;5078660;28;19915;-63
2022/09/13 02:56:02;;;;;;;;;;;19.70;99.90;;;;;;5079188;28;19908;-63
2022/09/13 02:58:31;;;;;;;;;;;19.70;99.90;;;;;;5095099;28;19919;-63
2022/09/13 03:00:57;;;;;;;;;;;19.70;99.90;;;;;;5078498;28;19909;-63
2022/09/13 03:03:22;;;;;;;;;;;19.80;99.90;;;;;;5078425;28;19912;-63
2022/09/13 03:05:48;;;;;;;;;;;19.80;99.90;;;;;;5078368;28;20004;-63
2022/09/13 03:08:16;;;;;;;;;;;19.80;99.90;;;;;;5078348;28;19923;-63
2022/09/13 03:10:52;;;;;;;;;;;19.70;99.90;;;;;;5078237;28;19924;-63
2022/09/13 03:13:36;;;;;;;;;;;19.60;99.90;;;;;;5078272;28;19908;-63
2022/09/13 03:16:08;;;;;;;;;;;19.70;99.90;;;;;;5078237;28;19909;-63
2022/09/13 03:18:53;;;;;;;;;;;19.70;99.90;;;;;;5077028;28;19912;-62
2022/09/13 03:21:21;;;;;;;;;;;19.70;99.90;;;;;;5077814;28;20014;-62
2022/09/13 03:23:59;;;;;;;;;;;19.70;99.90;;;;;;5078020;28;19905;-63
2022/09/13 03:26:33;;;;;;;;;;;19.80;99.90;;;;;;5077960;28;19909;-63
2022/09/13 03:29:02;;;;;;;;;;;19.80;99.90;;;;;;5077607;28;19912;-63
2022/09/13 03:31:47;;;;;;;;;;;19.70;99.90;;;;;;5077896;28;20015;-63
2022/09/13 03:34:19;;;;;;;;;;;19.70;99.90;;;;;;5094450;28;20276;-63
2022/09/13 03:36:48;;;;;;;;;;;19.70;99.90;;;;;;5077758;28;19908;-63
2022/09/13 03:39:23;;;;;;;;;;;19.70;99.90;;;;;;5077572;28;19923;-62
2022/09/13 03:41:53;;;;;;;;;;;19.80;99.90;;;;;;5093982;28;19912;-62
2022/09/13 03:44:20;;;;;;;;;;;19.70;99.90;;;;;;5077700;28;19908;-62
2022/09/13 03:46:47;;;;;;;;;;;19.70;99.90;;;;;;5077724;28;20223;-63
2022/09/13 03:49:15;;;;;;;;;;;19.60;99.90;;;;;;5094159;28;20187;-61
2022/09/13 03:51:42;;;;;;;;;;;19.60;99.90;;;;;;5077581;28;19913;-62
2022/09/13 03:54:15;;;;;;;;;;;19.60;99.90;;;;;;5077586;28;19957;-62
2022/09/13 03:56:40;;;;;;;;;;;19.40;99.90;;;;;;5078148;28;19908;-62
2022/09/13 03:59:06;;;;;;;;;;;19.40;99.90;;;;;;5077782;28;20002;-62
2022/09/13 04:01:32;;;;;;;;;;;19.30;99.90;;;;;;5093690;28;19912;-61
2022/09/13 04:03:58;;;;;;;;;;;19.20;99.90;;;;;;5077483;28;20272;-62
2022/09/13 04:06:23;;;;;;;;;;;19.20;99.90;;;;;;5077475;28;19931;-62
2022/09/13 04:08:49;;;;;;;;;;;19.40;99.90;;;;;;5077315;28;20019;-62
2022/09/13 04:11:15;;;;;;;;;;;19.50;99.90;;;;;;5077485;28;19912;-62
2022/09/13 04:13:41;;;;;;;;;;;19.40;99.90;;;;;;5077285;28;19909;-62
2022/09/13 04:16:06;;;;;;;;;;;19.60;99.90;;;;;;5077367;28;19908;-62
2022/09/13 04:18:33;;;;;;;;;;;19.70;99.90;;;;;;5077328;28;19912;-62
2022/09/13 04:20:59;;;;;;;;;;;19.70;99.90;;;;;;5077971;28;19919;-63
2022/09/13 04:23:25;;;;;;;;;;;19.70;99.90;;;;;;5077271;28;19983;-62
2022/09/13 04:25:52;;;;;;;;;;;19.70;99.90;;;;;;5093461;28;19919;-61
2022/09/13 04:28:18;;;;;;;;;;;19.60;99.90;;;;;;5077231;28;20238;-61
2022/09/13 04:30:44;;;;;;;;;;;19.60;99.90;;;;;;5077982;28;20339;-61
2022/09/13 04:33:09;;;;;;;;;;;19.70;99.90;;;;;;5097398;28;19959;-62
2022/09/13 04:35:35;;;;;;;;;;;19.80;99.90;;;;;;5080513;28;20191;-63
2022/09/13 04:38:02;;;;;;;;;;;19.70;99.90;;;;;;5081373;28;19995;-62
2022/09/13 04:40:28;;;;;;;;;;;19.60;99.90;;;;;;5080538;28;19974;-62
2022/09/13 04:42:54;;;;;;;;;;;19.60;99.90;;;;;;5081292;28;20192;-62
2022/09/13 04:45:19;;;;;;;;;;;19.60;99.90;;;;;;5080966;28;19923;-62
2022/09/13 04:47:50;;;;;;;;;;;19.60;99.90;;;;;;5081022;28;19909;-63
2022/09/13 04:50:15;;;;;;;;;;;19.60;99.90;;;;;;5097383;28;19912;-63
2022/09/13 04:52:41;;;;;;;;;;;19.60;99.90;;;;;;5081010;28;19965;-62
2022/09/13 04:55:07;;;;;;;;;;;19.60;99.90;;;;;;5080884;28;19912;-62
2022/09/13 04:57:33;;;;;;;;;;;19.70;99.90;;;;;;5080913;28;19916;-62
2022/09/13 04:59:58;;;;;;;;;;;19.60;99.90;;;;;;5080767;28;19912;-62
2022/09/13 05:02:24;;;;;;;;;;;19.60;99.90;;;;;;5080673;28;19916;-62
2022/09/13 05:04:50;;;;;;;;;;;19.60;99.90;;;;;;5080567;28;19952;-62
2022/09/13 05:07:16;;;;;;;;;;;19.60;99.90;;;;;;5080574;28;19913;-62
2022/09/13 05:09:42;;;;;;;;;;;19.50;99.90;;;;;;5079887;28;20020;-62
2022/09/13 05:12:07;;;;;;;;;;;19.40;99.90;;;;;;5079864;28;20000;-62
2022/09/13 05:14:33;;;;;;;;;;;19.40;99.90;;;;;;5079793;28;19927;-62
2022/09/13 05:16:59;;;;;;;;;;;19.40;99.90;;;;;;5080729;28;20244;-61
2022/09/13 05:19:25;;;;;;;;;;;19.30;99.90;;;;;;5079712;28;19923;-61
2022/09/13 05:21:50;;;;;;;;;;;19.30;99.90;;;;;;5080368;28;19946;-62
2022/09/13 05:24:16;;;;;;;;;;;19.30;99.90;;;;;;5080304;28;19959;-62
2022/09/13 05:26:44;;;;;;;;;;;19.30;99.90;;;;;;5064015;28;19912;-61
2022/09/13 05:29:10;;;;;;;;;;;19.40;99.90;;;;;;5080421;28;20007;-62
2022/09/13 05:31:37;;;;;;;;;;;19.40;99.90;;;;;;5079570;28;19916;-62
2022/09/13 05:34:04;;;;;;;;;;;19.40;99.90;;;;;;5080108;28;20011;-62
2022/09/13 05:36:30;;;;;;;;;;;19.50;99.90;;;;;;5096202;28;19908;-62
2022/09/13 05:38:56;;;;;;;;;;;19.50;99.90;;;;;;5079892;28;19969;-62
2022/09/13 05:41:22;;;;;;;;;;;19.60;99.90;;;;;;5079289;28;19913;-63
2022/09/13 05:43:48;;;;;;;;;;;19.60;99.90;;;;;;5079038;28;20327;-62
2022/09/13 05:46:15;;;;;;;;;;;19.60;99.90;;;;;;5079956;28;20028;-62
2022/09/13 05:48:41;;;;;;;;;;;19.70;99.90;;;;;;5079912;28;19930;-63
2022/09/13 05:51:11;;;;;;;;;;;19.70;99.90;;;;;;5079545;28;20188;-62
2022/09/13 05:53:38;;;;;;;;;;;19.80;99.90;;;;;;5079812;28;19916;-62
2022/09/13 05:56:05;;;;;;;;;;;19.80;99.90;;;;;;5096091;28;19978;-62
2022/09/13 05:58:31;;;;;;;;;;;19.80;99.90;;;;;;5095909;28;19916;-61
2022/09/13 06:00:57;;;;;;;;;;;19.80;99.90;;;;;;5079805;28;19909;-62
2022/09/13 06:03:22;;;;;;;;;;;19.80;99.90;;;;;;5080036;28;20203;-63
2022/09/13 06:05:48;;;;;;;;;;;19.70;99.90;;;;;;5079620;28;20268;-63
2022/09/13 06:08:15;;;;;;;;;;;19.60;99.90;;;;;;5079550;28;19981;-63
2022/09/13 06:10:40;;;;;;;;;;;19.70;99.90;;;;;;5095645;28;20010;-62
2022/09/13 06:13:06;;;;;;;;;;;19.80;99.90;;;;;;5079566;28;19944;-62
2022/09/13 06:15:32;;;;;;;;;;;19.90;99.90;;;;;;5079389;28;20165;-61
2022/09/13 06:17:58;;;;;;;;;;;20.00;99.90;;;;;;5079372;28;19969;-63
2022/09/13 06:20:23;;;;;;;;;;;20.10;99.90;;;;;;5078677;28;20339;-63
2022/09/13 06:22:49;;;;;;;;;;;20.20;99.90;;;;;;5079430;28;19912;-63
2022/09/13 06:25:15;;;;;;;;;;;20.30;99.90;;;;;;5079149;28;19919;-61
2022/09/13 06:27:41;;;;;;;;;;;20.30;99.90;;;;;;5079426;28;19923;-61
2022/09/13 06:30:07;;;;;;;;;;;20.40;99.90;;;;;;5079032;28;20295;-62
2022/09/13 06:32:36;;;;;;;;;;;20.30;99.90;;;;;;5079083;28;19912;-63
2022/09/13 06:35:02;;;;;;;;;;;20.20;99.90;;;;;;5079067;28;19913;-62
2022/09/13 06:37:28;;;;;;;;;;;20.30;99.90;;;;;;5079291;28;19913;-63
2022/09/13 06:39:53;;;;;;;;;;;20.30;99.90;;;;;;5078683;28;19927;-62
2022/09/13 06:42:19;;;;;;;;;;;20.40;99.90;;;;;;5078895;28;19927;-62
2022/09/13 06:44:45;;;;;;;;;;;20.40;99.90;;;;;;5078946;28;19960;-62
2022/09/13 06:47:11;;;;;;;;;;;20.40;99.90;;;;;;5077878;28;20018;-61
2022/09/13 06:49:38;;;;;;;;;;;20.50;99.90;;;;;;5078772;28;20004;-62
2022/09/13 06:52:03;;;;;;;;;;;20.50;99.90;;;;;;5078847;28;19916;-62
2022/09/13 06:54:29;;;;;;;;;;;20.40;99.90;;;;;;5078292;28;19927;-62
2022/09/13 06:56:55;;;;;;;;;;;20.50;99.90;;;;;;5077742;28;19908;-63
2022/09/13 06:59:21;;;;;;;;;;;20.50;99.90;;;;;;5078561;28;19912;-62
2022/09/13 07:01:46;;;;;;;;;;;20.60;99.90;;;;;;5078466;28;20303;-62
2022/09/13 07:04:14;;;;;;;;;;;20.70;99.90;;;;;;5078823;28;19963;-62
2022/09/13 07:06:44;;;;;;;;;;;20.70;99.90;;;;;;5078383;28;19923;-62
2022/09/13 07:09:11;;;;;;;;;;;20.80;99.90;;;;;;5078288;28;19920;-63
2022/09/13 07:11:37;;;;;;;;;;;20.90;99.90;;;;;;5077500;28;19908;-62
2022/09/13 07:14:03;;;;;;;;;;;20.70;99.90;;;;;;5094401;28;20292;-62
2022/09/13 07:16:30;;;;;;;;;;;20.80;99.90;;;;;;5078437;28;19908;-63
2022/09/13 07:18:57;;;;;;;;;;;21.00;99.90;;;;;;5078016;28;20238;-63
2022/09/13 07:21:24;;;;;;;;;;;21.00;99.90;;;;;;5094176;28;19908;-62
2022/09/13 07:23:50;;;;;;;;;;;21.10;99.90;;;;;;5078134;28;19981;-62
2022/09/13 07:26:15;;;;;;;;;;;21.10;99.90;;;;;;5077983;28;19908;-62
2022/09/13 07:28:42;;;;;;;;;;;21.30;99.90;;;;;;5078064;28;20280;-62
2022/09/13 07:31:09;;;;;;;;;;;21.40;99.90;;;;;;5077221;28;20189;-63
2022/09/13 07:33:36;;;;;;;;;;;21.60;99.90;;;;;;5077907;28;19908;-63
2022/09/13 07:36:05;;;;;;;;;;;21.70;99.90;;;;;;5077978;28;19995;-63
2022/09/13 07:38:34;;;;;;;;;;;21.70;99.90;;;;;;5077702;28;19979;-63
2022/09/13 07:41:01;;;;;;;;;;;22.00;99.90;;;;;;5077844;28;19908;-63
2022/09/13 07:43:27;;;;;;;;;;;22.20;99.90;;;;;;5077788;28;20299;-63
2022/09/13 07:46:00;;;;;;;;;;;22.30;99.90;;;;;;5078981;28;20302;-63
2022/09/13 07:48:26;;;;;;;;;;;22.50;99.90;;;;;;5077692;28;19908;-63
2022/09/13 07:50:56;;;;;;;;;;;22.80;99.90;;;;;;5076867;28;19922;-63
2022/09/13 07:53:22;;;;;;;;;;;22.80;99.90;;;;;;5077563;28;20303;-63
2022/09/13 07:55:48;;;;;;;;;;;22.70;99.90;;;;;;5093703;28;19912;-63
2022/09/13 07:58:13;;;;;;;;;;;22.80;99.90;;;;;;5077366;28;19919;-63
2022/09/13 08:00:40;;;;;;;;;;;23.00;99.90;;;;;;5076795;28;19946;-63
2022/09/13 08:03:06;;;;;;;;;;;23.10;99.90;;;;;;5077157;28;19912;-63
2022/09/13 08:05:37;;;;;;;;;;;23.00;99.90;;;;;;5076833;28;19909;-63
2022/09/13 08:08:02;;;;;;;;;;;23.00;99.90;;;;;;5077467;28;19999;-63
2022/09/13 08:10:28;;;;;;;;;;;23.30;99.90;;;;;;5077651;28;20010;-63
2022/09/13 08:12:54;;;;;;;;;;;23.50;99.90;;;;;;5077201;28;19913;-63
2022/09/13 08:15:19;;;;;;;;;;;23.80;99.90;;;;;;5077283;28;19963;-64
2022/09/13 08:17:45;;;;;;;;;;;23.90;99.90;;;;;;5077397;28;19916;-63
2022/09/13 08:20:11;;;;;;;;;;;24.10;99.90;;;;;;5077249;28;19946;-63
2022/09/13 08:22:36;;;;;;;;;;;24.20;99.90;;;;;;5077061;28;19912;-63
2022/09/13 08:25:02;;;;;;;;;;;24.30;99.90;;;;;;5077222;28;19909;-64
2022/09/13 08:27:28;;;;;;;;;;;24.30;99.90;;;;;;5077214;28;20406;-63
2022/09/13 08:29:53;;;;;;;;;;;24.30;99.90;;;;;;5077140;28;19973;-63
2022/09/13 08:32:19;;;;;;;;;;;24.30;99.90;;;;;;5077030;28;19920;-64
2022/09/13 08:34:45;;;;;;;;;;;24.30;99.90;;;;;;5093245;28;19916;-63
2022/09/13 08:37:11;;;;;;;;;;;24.30;99.90;;;;;;5077180;28;19938;-64
2022/09/13 08:39:37;;;;;;;;;;;24.30;99.90;;;;;;5076290;28;19921;-64
2022/09/13 08:42:10;;;;;;;;;;;24.00;99.90;;;;;;5077101;28;19942;-63
2022/09/13 08:44:44;;;;;;;;;;;24.10;99.90;;;;;;5077111;28;19919;-63
2022/09/13 08:47:15;;;;;;;;;;;24.00;99.90;;;;;;5077078;28;20300;-63
2022/09/13 08:49:44;;;;;;;;;;;24.10;99.90;;;;;;5076929;28;20223;-63
2022/09/13 08:52:29;;;;;;;;;;;24.30;99.90;;;;;;5076958;28;19913;-64
2022/09/13 08:54:56;;;;;;;;;;;24.50;99.90;;;;;;5077265;28;20153;-64
2022/09/13 08:57:25;;;;;;;;;;;24.40;99.90;;;;;;5077525;28;20253;-62
2022/09/13 08:59:56;;;;;;;;;;;24.30;99.90;;;;;;5076846;28;19919;-63
2022/09/13 09:02:40;;;;;;;;;;;24.30;99.90;;;;;;5077088;28;20290;-63
2022/09/13 09:05:23;;;;;;;;;;;24.60;99.90;;;;;;5076786;28;19908;-63
2022/09/13 09:07:57;;;;;;;;;;;24.60;99.90;;;;;;5076773;28;19916;-62
2022/09/13 09:10:34;;;;;;;;;;;24.90;99.90;;;;;;5076739;28;19919;-63
2022/09/13 09:13:27;;;;;;;;;;;24.90;99.90;;;;;;5076724;28;20261;-62
2022/09/13 09:16:16;;;;;;;;;;;25.10;99.90;;;;;;5076819;28;19915;-62
2022/09/13 09:18:45;;;;;;;;;;;24.80;99.90;;;;;;5074879;28;19958;-62
2022/09/13 09:21:13;;;;;;;;;;;25.10;99.90;;;;;;5080391;28;19995;-62
2022/09/13 09:23:50;;;;;;;;;;;25.40;99.90;;;;;;5080432;28;19904;-62
2022/09/13 09:26:20;;;;;;;;;;;25.50;99.90;;;;;;5080016;28;20290;-62
2022/09/13 09:28:49;;;;;;;;;;;25.00;99.90;;;;;;5079542;28;19909;-62
2022/09/13 09:31:22;;;;;;;;;;;24.90;99.90;;;;;;5080169;28;20274;-63
2022/09/13 09:34:06;;;;;;;;;;;25.00;99.90;;;;;;5080463;28;20192;-63
2022/09/13 09:36:45;;;;;;;;;;;25.00;99.90;;;;;;5080200;28;19908;-62
2022/09/13 09:39:12;;;;;;;;;;;25.30;99.90;;;;;;5080110;28;19927;-62
2022/09/13 09:41:37;;;;;;;;;;;25.20;99.90;;;;;;5080016;28;20215;-62
2022/09/13 09:44:17;;;;;;;;;;;25.20;99.90;;;;;;5079943;28;19919;-62
2022/09/13 09:46:44;;;;;;;;;;;25.30;99.90;;;;;;5079951;28;20187;-62
2022/09/13 09:50:08;;;;;;;;;;;25.40;99.90;;;;;;5079851;28;19908;-62
2022/09/13 09:52:05;;;;;;;;;;;25.40;99.90;;;;;;5079645;28;19927;-63
2022/09/13 09:54:32;;;;;;;;;;;25.80;99.90;;;;;;5079434;28;19908;-64
2022/09/13 09:56:57;;;;;;;;;;;26.00;99.90;;;;;;5079837;28;19915;-63
2022/09/13 09:59:28;;;;;;;;;;;26.30;99.90;;;;;;5079001;28;19912;-63
2022/09/13 10:01:56;;;;;;;;;;;26.30;99.90;;;;;;5079041;28;19908;-63
2022/09/13 10:04:22;;;;;;;;;;;25.60;99.90;;;;;;5079545;28;19969;-63
2022/09/13 10:06:50;;;;;;;;;;;25.70;99.90;;;;;;5095634;28;19923;-63
2022/09/13 10:09:17;;;;;;;;;;;25.80;99.90;;;;;;5079540;28;20015;-63
2022/09/13 10:11:45;;;;;;;;;;;26.00;99.90;;;;;;5079977;28;20286;-63
2022/09/13 10:14:26;;;;;;;;;;;25.60;99.90;;;;;;5079472;28;19930;-63
2022/09/13 10:17:11;;;;;;;;;;;25.30;99.90;;;;;;5095508;28;20003;-63
2022/09/13 10:19:37;;;;;;;;;;;25.20;99.90;;;;;;5079289;28;19912;-63
2022/09/13 10:22:10;;;;;;;;;;;25.50;99.90;;;;;;5079260;28;19969;-63
2022/09/13 10:24:35;;;;;;;;;;;25.80;99.90;;;;;;5061727;28;19940;-62
2022/09/13 10:27:03;;;;;;;;;;;26.00;99.90;;;;;;5079403;28;19946;-63
2022/09/13 10:29:30;;;;;;;;;;;26.10;99.90;;;;;;5078552;28;20288;-63
2022/09/13 10:32:02;;;;;;;;;;;26.30;99.90;;;;;;5079014;28;19970;-63
2022/09/13 10:34:29;;;;;;;;;;;26.50;99.90;;;;;;5079447;28;19912;-64
2022/09/13 10:36:55;;;;;;;;;;;27.20;99.90;;;;;;5079562;28;19966;-63
2022/09/13 10:39:22;;;;;;;;;;;27.70;99.90;;;;;;5078712;28;19924;-63
2022/09/13 10:41:53;;;;;;;;;;;28.50;99.90;;;;;;5079180;28;19947;-63
2022/09/13 10:44:24;;;;;;;;;;;28.50;99.90;;;;;;5078829;28;19945;-63
2022/09/13 10:46:51;;;;;;;;;;;28.50;99.90;;;;;;5078120;28;19919;-63
2022/09/13 10:49:36;;;;;;;;;;;29.10;99.90;;;;;;5078732;28;19912;-63
2022/09/13 10:52:22;;;;;;;;;;;28.70;99.90;;;;;;5078597;28;19921;-63
2022/09/13 10:54:47;;;;;;;;;;;28.90;99.90;;;;;;5094749;28;20195;-63
2022/09/13 10:57:26;;;;;;;;;;;29.10;99.90;;;;;;5078491;28;19995;-63
2022/09/13 10:59:53;;;;;;;;;;;29.10;99.90;;;;;;5077974;28;20280;-63
2022/09/13 11:02:31;;;;;;;;;;;29.10;99.90;;;;;;5079038;28;20296;-64
2022/09/13 11:05:20;;;;;;;;;;;29.40;99.90;;;;;;5078444;28;19966;-63
2022/09/13 11:07:49;;;;;;;;;;;28.80;99.90;;;;;;5059308;28;19962;-63
2022/09/13 11:10:20;;;;;;;;;;;28.30;99.90;;;;;;5077553;28;20294;-64
2022/09/13 11:13:06;;;;;;;;;;;28.10;99.90;;;;;;5078320;28;19908;-63
2022/09/13 11:15:47;;;;;;;;;;;27.60;99.90;;;;;;5077501;28;19999;-64
2022/09/13 11:18:27;;;;;;;;;;;27.40;99.90;;;;;;5078123;28;19919;-63
2022/09/13 11:21:12;;;;;;;;;;;27.30;99.90;;;;;;5078085;28;19962;-63
2022/09/13 11:23:47;;;;;;;;;;;27.50;99.90;;;;;;5077166;28;19908;-63
2022/09/13 11:26:32;;;;;;;;;;;27.70;99.90;;;;;;5078554;28;19909;-63
2022/09/13 11:29:18;;;;;;;;;;;27.50;99.90;;;;;;5077821;28;20022;-63
2022/09/13 11:31:52;;;;;;;;;;;28.20;99.90;;;;;;5077790;28;19916;-63
2022/09/13 11:34:18;;;;;;;;;;;29.80;99.90;;;;;;5077903;28;19908;-63
2022/09/13 11:36:44;;;;;;;;;;;31.00;99.90;;;;;;5077940;28;19908;-63
2022/09/13 11:39:35;;;;;;;;;;;32.20;99.90;;;;;;5077585;28;19930;-63
2022/09/13 11:42:01;;;;;;;;;;;32.80;99.90;;;;;;5061335;28;19909;-64
2022/09/13 11:44:36;;;;;;;;;;;32.80;99.90;;;;;;5077692;28;20188;-64
2022/09/13 11:47:01;;;;;;;;;;;33.30;99.90;;;;;;5077659;28;19997;-64
2022/09/13 11:49:33;;;;;;;;;;;33.60;99.90;;;;;;5077672;28;19953;-64
2022/09/13 11:51:58;;;;;;;;;;;33.40;99.90;;;;;;5076848;28;20012;-63
2022/09/13 11:54:31;;;;;;;;;;;33.00;99.90;;;;;;5077602;28;19948;-64
2022/09/13 11:57:00;;;;;;;;;;;33.00;99.90;;;;;;5077915;28;19908;-64
2022/09/13 11:59:46;;;;;;;;;;;32.00;99.90;;;;;;5077497;28;20146;-64
2022/09/13 12:02:27;;;;;;;;;;;31.90;99.90;;;;;;5077230;28;20002;-64
2022/09/13 12:04:53;;;;;;;;;;;32.00;99.90;;;;;;5076755;28;20272;-64
2022/09/13 12:07:28;;;;;;;;;;;32.40;99.90;;;;;;5077440;28;19909;-64
2022/09/13 12:09:59;;;;;;;;;;;33.10;99.90;;;;;;5076980;28;19909;-64
2022/09/13 12:12:27;;;;;;;;;;;32.80;99.90;;;;;;5077529;28;20306;-64
2022/09/13 12:15:01;;;;;;;;;;;33.90;99.90;;;;;;5077343;28;19908;-43
2022/09/13 12:17:30;;;;;;;;;;;34.60;99.90;;;;;;5077386;28;19981;-43
2022/09/13 12:19:57;;;;;;;;;;;34.60;99.90;;;;;;5077419;28;20333;-43
2022/09/13 12:22:25;;;;;;;;;;;34.70;99.90;;;;;;5077131;28;20326;-50
2022/09/13 12:24:54;;;;;;;;;;;34.90;99.90;;;;;;5077255;28;19908;-43
2022/09/13 12:27:20;;;;;;;;;;;34.70;99.90;;;;;;5077240;28;19952;-44
2022/09/13 12:30:06;;;;;;;;;;;35.00;99.90;;;;;;5077192;28;19960;-44
2022/09/13 12:32:31;;;;;;;;;;;35.20;99.90;;;;;;5077191;28;20260;-55
2022/09/13 12:35:00;;;;;;;;;;;34.00;99.90;;;;;;5077327;28;19971;-55
2022/09/13 12:37:44;;;;;;;;;;;34.00;99.90;;;;;;5077207;28;19908;-56
2022/09/13 12:40:29;;;;;;;;;;;34.20;99.90;;;;;;5076993;28;20003;-55
2022/09/13 12:43:07;;;;;;;;;;;33.90;99.90;;;;;;5077443;28;20001;-53
2022/09/13 12:45:48;;;;;;;;;;;33.10;99.90;;;;;;5077173;28;19909;-53
2022/09/13 12:48:14;;;;;;;;;;;32.40;99.90;;;;;;5077017;28;19909;-41
2022/09/13 12:50:54;;;;;;;;;;;31.70;99.90;;;;;;5076880;28;20252;-41
2022/09/13 12:53:39;;;;;;;;;;;31.40;99.90;;;;;;5080456;28;20019;-41
2022/09/13 12:56:23;;;;;;;;;;;30.90;99.90;;;;;;5081586;28;19909;-42
2022/09/13 12:58:55;;;;;;;;;;;30.30;99.90;;;;;;5081117;28;19909;-42
2022/09/13 13:01:22;;;;;;;;;;;29.70;99.90;;;;;;5080468;28;19947;-42
2022/09/13 13:03:54;;;;;;;;;;;29.50;99.90;;;;;;5080766;28;19904;-42
2022/09/13 13:06:25;;;;;;;;;;;29.50;99.90;;;;;;5081072;28;19912;-42
2022/09/13 13:08:53;;;;;;;;;;;29.50;99.90;;;;;;5080869;28;19954;-42
2022/09/13 13:11:23;;;;;;;;;;;29.40;99.90;;;;;;5080563;28;19912;-42
2022/09/13 13:14:01;;;;;;;;;;;29.10;99.90;;;;;;5096767;28;19908;-42
2022/09/13 13:16:32;;;;;;;;;;;29.00;99.90;;;;;;5080534;28;19908;-42
2022/09/13 13:19:02;;;;;;;;;;;28.80;99.90;;;;;;5096632;28;20173;-42
2022/09/13 13:21:29;;;;;;;;;;;28.40;99.90;;;;;;5081233;28;19908;-42
2022/09/13 13:24:13;;;;;;;;;;;27.80;99.90;;;;;;5080379;28;19962;-41
2022/09/13 13:26:49;;;;;;;;;;;27.70;99.90;;;;;;5079616;28;19971;-41
2022/09/13 13:29:22;;;;;;;;;;;27.80;99.90;;;;;;5080302;28;19916;-42
2022/09/13 13:32:01;;;;;;;;;;;27.70;99.90;;;;;;5080249;28;19919;-43
2022/09/13 13:34:29;;;;;;;;;;;27.70;99.90;;;;;;5080159;28;19946;-42
2022/09/13 13:37:22;;;;;;;;;;;27.70;99.90;;;;;;5079602;28;20272;-41
2022/09/13 13:39:48;;;;;;;;;;;27.60;99.90;;;;;;5080058;28;19916;-42
2022/09/13 13:42:31;;;;;;;;;;;27.30;99.90;;;;;;5079404;28;19912;-41
2022/09/13 13:45:00;;;;;;;;;;;27.20;99.90;;;;;;5096090;28;19908;-40
2022/09/13 13:47:29;;;;;;;;;;;27.10;99.90;;;;;;5078739;28;20328;-44
2022/09/13 13:50:17;;;;;;;;;;;26.80;99.90;;;;;;5096092;28;19912;-42
2022/09/13 13:52:46;;;;;;;;;;;26.80;99.90;;;;;;5079126;28;20006;-42
2022/09/13 13:55:32;;;;;;;;;;;26.60;99.90;;;;;;5079792;28;19912;-41
2022/09/13 13:58:00;;;;;;;;;;;26.40;99.90;;;;;;5080368;28;20173;-41
2022/09/13 14:00:30;;;;;;;;;;;26.40;99.90;;;;;;5080100;28;20188;-41
2022/09/13 14:02:55;;;;;;;;;;;26.40;99.90;;;;;;5079497;28;19908;-42
2022/09/13 14:05:25;;;;;;;;;;;26.20;99.90;;;;;;5079231;28;19908;-42
2022/09/13 14:08:09;;;;;;;;;;;25.90;99.90;;;;;;5079640;28;19908;-42
2022/09/13 14:10:52;;;;;;;;;;;25.80;99.90;;;;;;5079794;28;20225;-43
2022/09/13 14:13:28;;;;;;;;;;;25.70;99.90;;;;;;5079842;28;19951;-42
2022/09/13 14:15:59;;;;;;;;;;;25.60;99.90;;;;;;5080051;28;19912;-41
2022/09/13 14:18:28;;;;;;;;;;;25.40;99.90;;;;;;5079770;28;19919;-43
2022/09/13 14:20:58;;;;;;;;;;;25.20;99.90;;;;;;5079257;28;19958;-42
2022/09/13 14:23:24;;;;;;;;;;;25.30;99.90;;;;;;5079257;28;19908;-41
2022/09/13 14:25:53;;;;;;;;;;;25.20;99.90;;;;;;5079201;28;19961;-42
2022/09/13 14:28:20;;;;;;;;;;;24.90;99.90;;;;;;5079138;28;19912;-40
2022/09/13 14:30:46;;;;;;;;;;;24.80;99.90;;;;;;5078968;28;19920;-42
2022/09/13 14:33:44;;;;;;;;;;;24.80;99.90;;;;;;5078924;28;19908;-42